Shoei Maru — JG5125 — position and weather

sailwx.info

Track history (hours):
 
Tides and Currents Weather Stations Pressure Air Temp Water Temp Dewpoint Dewpoint Depression Visibility Wind Speed Wind Dir Waves Ship Positions

Shoei Maru

Last reported at 2017-Dec-10 08:45 UTC. Time now 2017-Dec-13 05:20 UTC.
Position N 34°25' E 130°52'.

Length 70 m; draft 5 m.

Type: Tanker. MMSI: 431600827.

Date/timePositionNaut miles runAvg speedWind from/ knotsBaromVisibWave heightAir tempDewpointWater temp
2017-Dec-10 08:45N 34°25' E 130°52'313.0
2017-Dec-10 08:30N 34°23' E 130°49'612.0
2017-Dec-10 08:00N 34°17' E 130°49'612.1
2017-Dec-10 07:30N 34°11' E 130°50'612.3
2017-Dec-10 07:00N 34°05' E 130°51'612.0
2017-Dec-10 06:30N 33°59' E 130°53'5 9.4
2017-Dec-10 06:01N 33°55' E 130°56'611.8
2017-Dec-10 05:30N 33°58' E 131°02'612.5
2017-Dec-10 05:00N 33°55' E 131°08'612.3
2017-Dec-10 04:30N 33°52' E 131°14'612.2
2017-Dec-10 04:00N 33°51' E 131°21'612.2
2017-Dec-10 03:30N 33°50' E 131°29'612.5
2017-Dec-10 03:00N 33°49' E 131°36'612.4
2017-Dec-10 02:30N 33°48' E 131°43'712.3
2017-Dec-10 01:58N 33°47' E 131°51'612.1
2017-Dec-10 01:30N 33°46' E 131°58'611.5
2017-Dec-10 00:56N 33°47' E 132°06'611.6
2017-Dec-10 00:27N 33°50' E 132°12'611.8
2017-Dec-09 23:54N 33°50' E 132°19'912.0
2017-Dec-09 23:07N 33°53' E 132°30'112.1
2017-Dec-09 23:00N 33°53' E 132°32'612.8
2017-Dec-09 22:30N 33°56' E 132°39'612.8
2017-Dec-09 22:00N 34°00' E 132°45'8411.2
2017-Dec-09 14:29N 34°25' E 134°22'612.0
2017-Dec-09 14:00N 34°28' E 134°28'611.8
2017-Dec-09 13:31N 34°30' E 134°35'611.7
2017-Dec-09 13:00N 34°32' E 134°42'611.5
2017-Dec-09 12:31N 34°34' E 134°48'611.0
2017-Dec-09 12:00N 34°36' E 134°54'510.4
2017-Dec-09 11:31N 34°37' E 135°00'4 8.8
2017-Dec-09 11:00N 34°36' E 135°05'510.8
2017-Dec-09 10:31N 34°34' E 135°12'611.1
2017-Dec-09 10:01N 34°34' E 135°18'611.2
2017-Dec-09 09:30N 34°33' E 135°25'1 1.2
2017-Dec-09 08:59N 34°33' E 135°26'0 0.0
2017-Dec-09 08:29N 34°33' E 135°26'0 0.0
2017-Dec-09 07:59N 34°33' E 135°26'0 0.0
2017-Dec-09 07:29N 34°33' E 135°26'0 0.0
2017-Dec-09 06:59N 34°33' E 135°26'0 0.0
2017-Dec-09 06:26N 34°33' E 135°26'0 0.0
2017-Dec-09 05:59N 34°33' E 135°26'0 0.0
2017-Dec-09 05:29N 34°33' E 135°26'0 0.0
2017-Dec-09 04:59N 34°33' E 135°26'0 0.0
2017-Dec-09 04:29N 34°33' E 135°26'0 0.0
2017-Dec-09 03:59N 34°33' E 135°26'0 0.0
2017-Dec-09 03:29N 34°33' E 135°26'0 0.0
2017-Dec-09 02:59N 34°33' E 135°26'0 0.0
2017-Dec-09 02:29N 34°33' E 135°26'0 0.0
2017-Dec-09 01:59N 34°33' E 135°26'0 0.0
2017-Dec-09 01:29N 34°33' E 135°26'0 0.0
2017-Dec-09 00:59N 34°33' E 135°26'0 0.0
2017-Dec-09 00:29N 34°33' E 135°26'0 0.0
2017-Dec-08 23:59N 34°33' E 135°26'0 0.0
2017-Dec-08 23:29N 34°33' E 135°26'0 0.0
2017-Dec-08 22:59N 34°33' E 135°26'0 0.0
2017-Dec-08 22:29N 34°33' E 135°26'1 1.5
2017-Dec-08 22:00N 34°33' E 135°25'3 5.7
2017-Dec-08 21:28N 34°33' E 135°21'0 0.1
2017-Dec-08 20:58N 34°33' E 135°21'0 0.0
2017-Dec-08 20:28N 34°33' E 135°21'0 0.0
2017-Dec-08 19:58N 34°33' E 135°21'0 0.0
2017-Dec-08 19:28N 34°33' E 135°21'0 0.0
2017-Dec-08 18:58N 34°33' E 135°21'0 0.0
2017-Dec-08 18:28N 34°33' E 135°21'0 0.0
2017-Dec-08 17:58N 34°33' E 135°21'0 0.0
2017-Dec-08 17:28N 34°33' E 135°21'0 0.1
2017-Dec-08 16:55N 34°33' E 135°21'1 3.4
2017-Dec-08 16:30N 34°33' E 135°19'612.0
2017-Dec-08 16:00N 34°34' E 135°12'612.4
2017-Dec-08 15:30N 34°35' E 135°05'510.4
2017-Dec-08 15:01N 34°37' E 134°59'611.1
2017-Dec-08 14:31N 34°35' E 134°53'611.2
2017-Dec-08 14:01N 34°32' E 134°47'611.5
2017-Dec-08 13:31N 34°30' E 134°40'612.0
2017-Dec-08 13:01N 34°28' E 134°34'712.1
2017-Dec-08 12:28N 34°25' E 134°26'1112.0
2017-Dec-08 11:30N 34°24' E 134°12'7611.5
2017-Dec-08 04:54N 33°60' E 132°45'613.3
2017-Dec-08 04:29N 33°56' E 132°40'1613.1
2017-Dec-08 03:14N 33°50' E 132°22'313.5
2017-Dec-08 03:00N 33°50' E 132°18'813.1
2017-Dec-08 02:23N 33°48' E 132°09'513.0
2017-Dec-08 01:59N 33°46' E 132°03'1112.1
2017-Dec-08 01:07N 33°46' E 131°50'212.2
2017-Dec-08 00:59N 33°47' E 131°48'611.7
2017-Dec-08 00:30N 33°47' E 131°42'611.7
2017-Dec-08 00:00N 33°48' E 131°35'611.7
2017-Dec-07 23:30N 33°50' E 131°28'611.7
2017-Dec-07 23:00N 33°51' E 131°21'611.6
2017-Dec-07 22:30N 33°52' E 131°14'611.9
2017-Dec-07 22:00N 33°55' E 131°08'510.6
2017-Dec-07 21:30N 33°57' E 131°02'0 0.0
2017-Dec-07 21:00N 33°57' E 131°02'0 0.0
2017-Dec-07 20:27N 33°57' E 131°02'0 0.0
2017-Dec-07 20:00N 33°57' E 131°02'0 0.1
2017-Dec-07 19:30N 33°57' E 131°02'0 0.0
2017-Dec-07 19:00N 33°57' E 131°02'0 0.0
2017-Dec-07 18:30N 33°57' E 131°02'0 0.0
2017-Dec-07 18:00N 33°57' E 131°02'0 0.0
2017-Dec-07 17:30N 33°57' E 131°02'0 0.0
2017-Dec-07 17:00N 33°57' E 131°02'0 0.1
2017-Dec-07 16:30N 33°57' E 131°02'0 0.1
2017-Dec-07 16:00N 33°57' E 131°02'0 0.1
2017-Dec-07 15:30N 33°57' E 131°02'0 0.0
2017-Dec-07 14:57N 33°57' E 131°02'0 0.1
2017-Dec-07 14:30N 33°57' E 131°02'0 0.0
2017-Dec-07 14:00N 33°57' E 131°02'0 0.0
2017-Dec-07 13:30N 33°57' E 131°02'4 7.2
2017-Dec-07 13:01N 33°58' E 130°58'5 9.4
2017-Dec-07 12:30N 33°55' E 130°54'611.5
2017-Dec-07 12:00N 34°00' E 130°52'612.5
2017-Dec-07 11:31N 34°06' E 130°50'612.7
2017-Dec-07 11:00N 34°13' E 130°50'612.4
2017-Dec-07 10:30N 34°19' E 130°48'510.7
2017-Dec-07 10:00N 34°24' E 130°50'811.4
2017-Dec-07 09:18N 34°29' E 130°58'  
2017-Dec-01 12:45N 34°26' E 130°54'311.6
2017-Dec-01 12:30N 34°24' E 130°51'510.8
2017-Dec-01 12:00N 34°19' E 130°48'611.6
2017-Dec-01 11:30N 34°13' E 130°49'611.5
2017-Dec-01 11:00N 34°08' E 130°50'611.1
2017-Dec-01 10:30N 34°02' E 130°52'510.9
2017-Dec-01 10:00N 33°57' E 130°52'4 8.2
2017-Dec-01 09:30N 33°54' E 130°49'3 6.2
2017-Dec-01 08:59N 33°52' E 130°45'0 0.0
2017-Dec-01 08:29N 33°52' E 130°45'0 0.0
2017-Dec-01 07:59N 33°52' E 130°45'0 0.0
2017-Dec-01 07:29N 33°52' E 130°45'0 0.0
2017-Dec-01 06:59N 33°52' E 130°45'0 0.0
2017-Dec-01 06:29N 33°52' E 130°45'0 0.0
2017-Dec-01 05:59N 33°52' E 130°45'0 0.0
2017-Dec-01 05:29N 33°52' E 130°45'0 0.0
2017-Dec-01 04:59N 33°52' E 130°45'0 0.0
2017-Dec-01 04:29N 33°52' E 130°45'0 0.0
2017-Dec-01 03:59N 33°52' E 130°45'0 0.0
2017-Dec-01 03:29N 33°52' E 130°45'0 0.0
2017-Dec-01 02:59N 33°52' E 130°45'0 0.0
2017-Dec-01 02:29N 33°52' E 130°45'0 0.0
2017-Dec-01 01:59N 33°52' E 130°45'0 0.0
2017-Dec-01 01:29N 33°52' E 130°45'0 0.0
2017-Dec-01 00:59N 33°52' E 130°45'0 0.0
2017-Dec-01 00:29N 33°52' E 130°45'0 0.0
2017-Nov-30 23:59N 33°52' E 130°45'0 0.0
2017-Nov-30 23:29N 33°52' E 130°45'0 0.4
2017-Nov-30 23:00N 33°53' E 130°45'0 0.3
2017-Nov-30 22:25N 33°53' E 130°46'0 0.0
2017-Nov-30 21:58N 33°53' E 130°46'0 0.0
2017-Nov-30 21:28N 33°53' E 130°46'0 0.0
2017-Nov-30 20:58N 33°53' E 130°46'0 0.0
2017-Nov-30 20:28N 33°53' E 130°46'0 0.0
2017-Nov-30 19:58N 33°53' E 130°46'0 0.0
2017-Nov-30 19:28N 33°53' E 130°46'0 0.0
2017-Nov-30 18:58N 33°53' E 130°46'0 0.0
2017-Nov-30 18:28N 33°53' E 130°46'0 0.0
2017-Nov-30 17:58N 33°53' E 130°46'0 0.0
2017-Nov-30 17:28N 33°53' E 130°46'0 0.0
2017-Nov-30 16:58N 33°53' E 130°46'0 0.0
2017-Nov-30 16:25N 33°53' E 130°46'0 0.0
2017-Nov-30 15:58N 33°53' E 130°46'0 0.0
2017-Nov-30 15:28N 33°53' E 130°46'0 0.0
2017-Nov-30 14:58N 33°53' E 130°46'0 0.0
2017-Nov-30 14:28N 33°53' E 130°46'0 0.0
2017-Nov-30 13:58N 33°53' E 130°46'0 0.0
2017-Nov-30 13:28N 33°53' E 130°46'0 0.0
2017-Nov-30 12:58N 33°53' E 130°46'0 0.0
2017-Nov-30 12:28N 33°53' E 130°46'0 0.0
2017-Nov-30 11:58N 33°53' E 130°46'0 0.0
2017-Nov-30 11:28N 33°53' E 130°46'0 0.0
2017-Nov-30 10:58N 33°53' E 130°46'0 0.0
2017-Nov-30 10:28N 33°53' E 130°46'0 0.0
2017-Nov-30 09:58N 33°53' E 130°46'0 0.0
2017-Nov-30 09:28N 33°53' E 130°46'0 0.0
2017-Nov-30 08:58N 33°53' E 130°46'  
Track history (hours):
 
Tides and Currents Weather Stations Pressure Air Temp Water Temp Dewpoint Dewpoint Depression Visibility Wind Speed Wind Dir Waves Ship Positions

Shoei Maru

Last reported at 2017-Dec-10 08:45 UTC. Time now 2017-Dec-13 05:20 UTC.
Position N 34°25' E 130°52'.

Length 70 m; draft 5 m.

Type: Tanker. MMSI: 431600827.

Date/timePositionNaut miles runAvg speedWind from/ knotsBaromVisibWave heightAir tempDewpointWater temp
2017-Dec-10 08:45N 34°25' E 130°52'313.0
2017-Dec-10 08:30N 34°23' E 130°49'612.0
2017-Dec-10 08:00N 34°17' E 130°49'612.1
2017-Dec-10 07:30N 34°11' E 130°50'612.3
2017-Dec-10 07:00N 34°05' E 130°51'612.0
2017-Dec-10 06:30N 33°59' E 130°53'5 9.4
2017-Dec-10 06:01N 33°55' E 130°56'611.8
2017-Dec-10 05:30N 33°58' E 131°02'612.5
2017-Dec-10 05:00N 33°55' E 131°08'612.3
2017-Dec-10 04:30N 33°52' E 131°14'612.2
2017-Dec-10 04:00N 33°51' E 131°21'612.2
2017-Dec-10 03:30N 33°50' E 131°29'612.5
2017-Dec-10 03:00N 33°49' E 131°36'612.4
2017-Dec-10 02:30N 33°48' E 131°43'712.3
2017-Dec-10 01:58N 33°47' E 131°51'612.1
2017-Dec-10 01:30N 33°46' E 131°58'611.5
2017-Dec-10 00:56N 33°47' E 132°06'611.6
2017-Dec-10 00:27N 33°50' E 132°12'611.8
2017-Dec-09 23:54N 33°50' E 132°19'912.0
2017-Dec-09 23:07N 33°53' E 132°30'112.1
2017-Dec-09 23:00N 33°53' E 132°32'612.8
2017-Dec-09 22:30N 33°56' E 132°39'612.8
2017-Dec-09 22:00N 34°00' E 132°45'8411.2
2017-Dec-09 14:29N 34°25' E 134°22'612.0
2017-Dec-09 14:00N 34°28' E 134°28'611.8
2017-Dec-09 13:31N 34°30' E 134°35'611.7
2017-Dec-09 13:00N 34°32' E 134°42'611.5
2017-Dec-09 12:31N 34°34' E 134°48'611.0
2017-Dec-09 12:00N 34°36' E 134°54'510.4
2017-Dec-09 11:31N 34°37' E 135°00'4 8.8
2017-Dec-09 11:00N 34°36' E 135°05'510.8
2017-Dec-09 10:31N 34°34' E 135°12'611.1
2017-Dec-09 10:01N 34°34' E 135°18'611.2
2017-Dec-09 09:30N 34°33' E 135°25'1 1.2
2017-Dec-09 08:59N 34°33' E 135°26'0 0.0
2017-Dec-09 08:29N 34°33' E 135°26'0 0.0
2017-Dec-09 07:59N 34°33' E 135°26'0 0.0
2017-Dec-09 07:29N 34°33' E 135°26'0 0.0
2017-Dec-09 06:59N 34°33' E 135°26'0 0.0
2017-Dec-09 06:26N 34°33' E 135°26'0 0.0
2017-Dec-09 05:59N 34°33' E 135°26'0 0.0
2017-Dec-09 05:29N 34°33' E 135°26'0 0.0
2017-Dec-09 04:59N 34°33' E 135°26'0 0.0
2017-Dec-09 04:29N 34°33' E 135°26'0 0.0
2017-Dec-09 03:59N 34°33' E 135°26'0 0.0
2017-Dec-09 03:29N 34°33' E 135°26'0 0.0
2017-Dec-09 02:59N 34°33' E 135°26'0 0.0
2017-Dec-09 02:29N 34°33' E 135°26'0 0.0
2017-Dec-09 01:59N 34°33' E 135°26'0 0.0
2017-Dec-09 01:29N 34°33' E 135°26'0 0.0
2017-Dec-09 00:59N 34°33' E 135°26'0 0.0
2017-Dec-09 00:29N 34°33' E 135°26'0 0.0
2017-Dec-08 23:59N 34°33' E 135°26'0 0.0
2017-Dec-08 23:29N 34°33' E 135°26'0 0.0
2017-Dec-08 22:59N 34°33' E 135°26'0 0.0
2017-Dec-08 22:29N 34°33' E 135°26'1 1.5
2017-Dec-08 22:00N 34°33' E 135°25'3 5.7
2017-Dec-08 21:28N 34°33' E 135°21'0 0.1
2017-Dec-08 20:58N 34°33' E 135°21'0 0.0
2017-Dec-08 20:28N 34°33' E 135°21'0 0.0
2017-Dec-08 19:58N 34°33' E 135°21'0 0.0
2017-Dec-08 19:28N 34°33' E 135°21'0 0.0
2017-Dec-08 18:58N 34°33' E 135°21'0 0.0
2017-Dec-08 18:28N 34°33' E 135°21'0 0.0
2017-Dec-08 17:58N 34°33' E 135°21'0 0.0
2017-Dec-08 17:28N 34°33' E 135°21'0 0.1
2017-Dec-08 16:55N 34°33' E 135°21'1 3.4
2017-Dec-08 16:30N 34°33' E 135°19'612.0
2017-Dec-08 16:00N 34°34' E 135°12'612.4
2017-Dec-08 15:30N 34°35' E 135°05'510.4
2017-Dec-08 15:01N 34°37' E 134°59'611.1
2017-Dec-08 14:31N 34°35' E 134°53'611.2
2017-Dec-08 14:01N 34°32' E 134°47'611.5
2017-Dec-08 13:31N 34°30' E 134°40'612.0
2017-Dec-08 13:01N 34°28' E 134°34'712.1
2017-Dec-08 12:28N 34°25' E 134°26'1112.0
2017-Dec-08 11:30N 34°24' E 134°12'7611.5
2017-Dec-08 04:54N 33°60' E 132°45'613.3
2017-Dec-08 04:29N 33°56' E 132°40'1613.1
2017-Dec-08 03:14N 33°50' E 132°22'313.5
2017-Dec-08 03:00N 33°50' E 132°18'813.1
2017-Dec-08 02:23N 33°48' E 132°09'513.0
2017-Dec-08 01:59N 33°46' E 132°03'1112.1
2017-Dec-08 01:07N 33°46' E 131°50'212.2
2017-Dec-08 00:59N 33°47' E 131°48'611.7
2017-Dec-08 00:30N 33°47' E 131°42'611.7
2017-Dec-08 00:00N 33°48' E 131°35'611.7
2017-Dec-07 23:30N 33°50' E 131°28'611.7
2017-Dec-07 23:00N 33°51' E 131°21'611.6
2017-Dec-07 22:30N 33°52' E 131°14'611.9
2017-Dec-07 22:00N 33°55' E 131°08'510.6
2017-Dec-07 21:30N 33°57' E 131°02'0 0.0
2017-Dec-07 21:00N 33°57' E 131°02'0 0.0
2017-Dec-07 20:27N 33°57' E 131°02'0 0.0
2017-Dec-07 20:00N 33°57' E 131°02'0 0.1
2017-Dec-07 19:30N 33°57' E 131°02'0 0.0
2017-Dec-07 19:00N 33°57' E 131°02'0 0.0
2017-Dec-07 18:30N 33°57' E 131°02'0 0.0
2017-Dec-07 18:00N 33°57' E 131°02'0 0.0
2017-Dec-07 17:30N 33°57' E 131°02'0 0.0
2017-Dec-07 17:00N 33°57' E 131°02'0 0.1
2017-Dec-07 16:30N 33°57' E 131°02'0 0.1
2017-Dec-07 16:00N 33°57' E 131°02'0 0.1
2017-Dec-07 15:30N 33°57' E 131°02'0 0.0
2017-Dec-07 14:57N 33°57' E 131°02'0 0.1
2017-Dec-07 14:30N 33°57' E 131°02'0 0.0
2017-Dec-07 14:00N 33°57' E 131°02'0 0.0
2017-Dec-07 13:30N 33°57' E 131°02'4 7.2
2017-Dec-07 13:01N 33°58' E 130°58'5 9.4
2017-Dec-07 12:30N 33°55' E 130°54'611.5
2017-Dec-07 12:00N 34°00' E 130°52'612.5
2017-Dec-07 11:31N 34°06' E 130°50'612.7
2017-Dec-07 11:00N 34°13' E 130°50'612.4
2017-Dec-07 10:30N 34°19' E 130°48'510.7
2017-Dec-07 10:00N 34°24' E 130°50'811.4
2017-Dec-07 09:18N 34°29' E 130°58'  
2017-Dec-01 12:45N 34°26' E 130°54'311.6
2017-Dec-01 12:30N 34°24' E 130°51'510.8
2017-Dec-01 12:00N 34°19' E 130°48'611.6
2017-Dec-01 11:30N 34°13' E 130°49'611.5
2017-Dec-01 11:00N 34°08' E 130°50'611.1
2017-Dec-01 10:30N 34°02' E 130°52'510.9
2017-Dec-01 10:00N 33°57' E 130°52'4 8.2
2017-Dec-01 09:30N 33°54' E 130°49'3 6.2
2017-Dec-01 08:59N 33°52' E 130°45'0 0.0
2017-Dec-01 08:29N 33°52' E 130°45'0 0.0
2017-Dec-01 07:59N 33°52' E 130°45'0 0.0
2017-Dec-01 07:29N 33°52' E 130°45'0 0.0
2017-Dec-01 06:59N 33°52' E 130°45'0 0.0
2017-Dec-01 06:29N 33°52' E 130°45'0 0.0
2017-Dec-01 05:59N 33°52' E 130°45'0 0.0
2017-Dec-01 05:29N 33°52' E 130°45'0 0.0
2017-Dec-01 04:59N 33°52' E 130°45'0 0.0
2017-Dec-01 04:29N 33°52' E 130°45'0 0.0
2017-Dec-01 03:59N 33°52' E 130°45'0 0.0
2017-Dec-01 03:29N 33°52' E 130°45'0 0.0
2017-Dec-01 02:59N 33°52' E 130°45'0 0.0
2017-Dec-01 02:29N 33°52' E 130°45'0 0.0
2017-Dec-01 01:59N 33°52' E 130°45'0 0.0
2017-Dec-01 01:29N 33°52' E 130°45'0 0.0
2017-Dec-01 00:59N 33°52' E 130°45'0 0.0
2017-Dec-01 00:29N 33°52' E 130°45'0 0.0
2017-Nov-30 23:59N 33°52' E 130°45'0 0.0
2017-Nov-30 23:29N 33°52' E 130°45'0 0.4
2017-Nov-30 23:00N 33°53' E 130°45'0 0.3
2017-Nov-30 22:25N 33°53' E 130°46'0 0.0
2017-Nov-30 21:58N 33°53' E 130°46'0 0.0
2017-Nov-30 21:28N 33°53' E 130°46'0 0.0
2017-Nov-30 20:58N 33°53' E 130°46'0 0.0
2017-Nov-30 20:28N 33°53' E 130°46'0 0.0
2017-Nov-30 19:58N 33°53' E 130°46'0 0.0
2017-Nov-30 19:28N 33°53' E 130°46'0 0.0
2017-Nov-30 18:58N 33°53' E 130°46'0 0.0
2017-Nov-30 18:28N 33°53' E 130°46'0 0.0
2017-Nov-30 17:58N 33°53' E 130°46'0 0.0
2017-Nov-30 17:28N 33°53' E 130°46'0 0.0
2017-Nov-30 16:58N 33°53' E 130°46'0 0.0
2017-Nov-30 16:25N 33°53' E 130°46'0 0.0
2017-Nov-30 15:58N 33°53' E 130°46'0 0.0
2017-Nov-30 15:28N 33°53' E 130°46'0 0.0
2017-Nov-30 14:58N 33°53' E 130°46'0 0.0
2017-Nov-30 14:28N 33°53' E 130°46'0 0.0
2017-Nov-30 13:58N 33°53' E 130°46'0 0.0
2017-Nov-30 13:28N 33°53' E 130°46'0 0.0
2017-Nov-30 12:58N 33°53' E 130°46'0 0.0
2017-Nov-30 12:28N 33°53' E 130°46'0 0.0
2017-Nov-30 11:58N 33°53' E 130°46'0 0.0
2017-Nov-30 11:28N 33°53' E 130°46'0 0.0
2017-Nov-30 10:58N 33°53' E 130°46'0 0.0
2017-Nov-30 10:28N 33°53' E 130°46'0 0.0
2017-Nov-30 09:58N 33°53' E 130°46'0 0.0
2017-Nov-30 09:28N 33°53' E 130°46'0 0.0
2017-Nov-30 08:58N 33°53' E 130°46'  

Dump ship's entire track history